createdAt,value
2023-05-23T00:00:22.293Z,24.90
2023-05-23T00:02:49.852Z,24.42
2023-05-23T00:05:19.084Z,25.70
2023-05-23T00:07:46.295Z,26.20
2023-05-23T00:10:14.679Z,25.38
2023-05-23T00:12:42.470Z,23.00
2023-05-23T00:15:10.140Z,27.15
2023-05-23T00:17:38.256Z,27.10
2023-05-23T00:20:06.048Z,25.33
2023-05-23T00:22:33.234Z,27.67
2023-05-23T00:25:02.319Z,24.17
2023-05-23T00:27:29.590Z,24.38
2023-05-23T00:29:56.807Z,26.65
2023-05-23T00:32:24.060Z,25.65
2023-05-23T00:34:54.186Z,25.77
2023-05-23T00:37:22.431Z,28.98
2023-05-23T00:39:49.826Z,34.03
2023-05-23T00:42:17.121Z,30.70
2023-05-23T00:44:44.300Z,34.63
2023-05-23T00:47:13.910Z,35.08
2023-05-23T00:49:41.580Z,38.65
2023-05-23T00:52:08.826Z,44.72
2023-05-23T00:54:37.241Z,40.78
2023-05-23T00:57:04.563Z,47.22
2023-05-23T00:59:31.941Z,44.63
2023-05-23T01:02:00.433Z,44.60
2023-05-23T01:04:28.431Z,45.60
2023-05-23T01:06:56.159Z,47.13
2023-05-23T01:09:24.408Z,46.78
2023-05-23T01:11:57.732Z,51.53
2023-05-23T01:14:30.404Z,52.22
2023-05-23T01:19:43.878Z,54.70
2023-05-23T01:22:22.418Z,60.83
2023-05-23T01:25:07.071Z,62.58
2023-05-23T01:27:38.065Z,65.32
2023-05-23T01:30:05.627Z,64.97
2023-05-23T01:32:33.314Z,65.45
2023-05-23T01:35:01.311Z,72.22
2023-05-23T01:37:29.821Z,76.30
2023-05-23T01:39:57.367Z,78.40
2023-05-23T01:42:24.694Z,75.13
2023-05-23T01:44:52.832Z,80.88
2023-05-23T01:47:20.975Z,76.93
2023-05-23T01:49:48.629Z,84.13
2023-05-23T01:52:16.321Z,82.35
2023-05-23T01:54:44.455Z,90.63
2023-05-23T01:57:12.110Z,94.78
2023-05-23T01:59:39.337Z,92.32
2023-05-23T02:02:06.731Z,101.88
2023-05-23T02:04:34.010Z,92.63
2023-05-23T02:07:01.192Z,90.47
2023-05-23T02:09:28.399Z,98.63
2023-05-23T02:11:55.780Z,93.43
2023-05-23T02:14:23.977Z,96.80
2023-05-23T02:16:53.771Z,101.72
2023-05-23T02:19:21.176Z,95.68
2023-05-23T02:21:48.438Z,104.97
2023-05-23T02:24:15.766Z,94.20
2023-05-23T02:26:43.003Z,100.20
2023-05-23T02:29:10.202Z,95.55
2023-05-23T02:31:37.373Z,95.43
2023-05-23T02:34:04.534Z,90.88
2023-05-23T02:36:33.413Z,93.15
2023-05-23T02:39:00.712Z,102.20
2023-05-23T02:41:27.877Z,95.82
2023-05-23T02:43:55.723Z,102.55
2023-05-23T02:46:23.001Z,99.57
2023-05-23T02:48:50.227Z,97.22
2023-05-23T02:51:17.473Z,101.38
2023-05-23T02:53:44.780Z,102.07
2023-05-23T02:56:13.489Z,105.35
2023-05-23T02:58:40.841Z,103.43
2023-05-23T03:01:12.099Z,103.68
2023-05-23T03:03:39.977Z,120.03
2023-05-23T03:06:07.356Z,135.13
2023-05-23T03:08:34.497Z,141.60
2023-05-23T03:11:01.684Z,120.82
2023-05-23T03:13:29.293Z,128.50
2023-05-23T03:15:56.496Z,123.65
2023-05-23T03:18:23.681Z,123.80
2023-05-23T03:20:50.818Z,125.75
2023-05-23T03:23:17.975Z,122.88
2023-05-23T03:25:45.156Z,132.38
2023-05-23T03:28:12.376Z,140.52
2023-05-23T03:30:39.545Z,134.23
2023-05-23T03:33:07.472Z,126.80
2023-05-23T03:35:34.694Z,155.98
2023-05-23T03:38:01.885Z,157.35
2023-05-23T03:40:29.034Z,156.48
2023-05-23T03:43:03.829Z,154.23
2023-05-23T03:45:31.626Z,179.68
2023-05-23T03:47:59.367Z,166.88
2023-05-23T03:50:26.674Z,195.43
2023-05-23T03:52:54.145Z,182.63
2023-05-23T03:55:25.464Z,158.57
2023-05-23T03:57:52.861Z,184.25
2023-05-23T04:00:20.063Z,162.48
2023-05-23T04:02:47.742Z,180.32
2023-05-23T04:05:14.994Z,177.40
2023-05-23T04:07:42.735Z,159.23
2023-05-23T04:10:10.434Z,177.30
2023-05-23T04:12:41.479Z,276.27
2023-05-23T04:15:09.122Z,177.93
2023-05-23T04:17:39.005Z,173.20
2023-05-23T04:20:12.874Z,187.95
2023-05-23T04:22:40.168Z,179.90
2023-05-23T04:25:07.556Z,200.30
2023-05-23T04:27:34.723Z,199.48
2023-05-23T04:30:01.978Z,186.18
2023-05-23T04:32:29.265Z,184.07
2023-05-23T04:34:56.914Z,174.45
2023-05-23T04:37:26.171Z,177.65
2023-05-23T04:39:53.892Z,167.45
2023-05-23T04:42:24.640Z,161.48
2023-05-23T04:44:58.278Z,167.40
2023-05-23T04:47:28.035Z,174.15
2023-05-23T04:49:58.336Z,176.73
2023-05-23T04:52:27.515Z,166.93
2023-05-23T04:54:56.135Z,167.23
2023-05-23T04:57:23.434Z,170.68
2023-05-23T04:59:50.742Z,160.20
2023-05-23T05:02:17.949Z,162.68
2023-05-23T05:04:45.665Z,145.90
2023-05-23T05:07:12.844Z,145.40
2023-05-23T05:09:40.029Z,135.23
2023-05-23T05:12:07.423Z,133.25
2023-05-23T05:14:34.879Z,124.40
2023-05-23T05:17:02.896Z,108.30
2023-05-23T05:19:30.571Z,111.78
2023-05-23T05:21:57.924Z,97.50
2023-05-23T05:24:25.347Z,98.05
2023-05-23T05:26:52.612Z,97.72
2023-05-23T05:29:19.772Z,88.93
2023-05-23T05:31:47.187Z,87.55
2023-05-23T05:34:14.373Z,92.78
2023-05-23T05:36:48.023Z,96.85
2023-05-23T05:39:15.576Z,92.78
2023-05-23T05:41:42.749Z,84.38
2023-05-23T05:44:10.804Z,84.65
2023-05-23T05:46:38.092Z,77.60
2023-05-23T05:49:05.296Z,74.68
2023-05-23T05:51:32.597Z,76.78
2023-05-23T05:53:59.826Z,78.28
2023-05-23T05:56:27.974Z,75.15
2023-05-23T05:58:55.261Z,82.85
2023-05-23T06:01:22.459Z,76.30
2023-05-23T06:03:49.833Z,77.40
2023-05-23T06:06:17.343Z,81.55
2023-05-23T06:08:44.600Z,77.95
2023-05-23T06:11:12.249Z,80.82
2023-05-23T06:13:39.526Z,79.65
2023-05-23T06:16:07.351Z,69.88
2023-05-23T06:18:34.657Z,63.47
2023-05-23T06:21:01.871Z,60.97
2023-05-23T06:23:29.046Z,60.22
2023-05-23T06:25:56.267Z,54.78
2023-05-23T06:28:23.453Z,55.05
2023-05-23T06:30:50.676Z,50.97
2023-05-23T06:33:17.900Z,49.97
2023-05-23T06:35:45.139Z,45.95
2023-05-23T06:38:12.502Z,46.63
2023-05-23T06:40:39.971Z,43.90
2023-05-23T06:43:07.514Z,45.47
2023-05-23T06:45:35.996Z,48.83
2023-05-23T06:48:03.379Z,44.47
2023-05-23T06:50:30.620Z,41.92
2023-05-23T06:52:57.943Z,43.97
2023-05-23T06:55:25.218Z,40.78
2023-05-23T06:57:52.534Z,42.38
2023-05-23T07:00:19.889Z,43.13
2023-05-23T07:02:48.669Z,43.22
2023-05-23T07:05:17.438Z,40.42
2023-05-23T07:07:44.865Z,42.42
2023-05-23T07:10:12.138Z,45.42
2023-05-23T07:12:39.421Z,61.63
2023-05-23T07:15:06.986Z,55.38
2023-05-23T07:17:34.295Z,60.70
2023-05-23T07:20:02.138Z,59.08
2023-05-23T07:22:29.344Z,63.17
2023-05-23T07:24:56.584Z,59.63
2023-05-23T07:27:23.859Z,71.05
2023-05-23T07:29:51.075Z,76.53
2023-05-23T07:32:18.209Z,75.20
2023-05-23T07:34:45.443Z,70.28
2023-05-23T07:37:12.697Z,79.38
2023-05-23T07:39:39.897Z,81.45
2023-05-23T07:42:07.133Z,77.72
2023-05-23T07:44:34.337Z,80.70
2023-05-23T07:47:01.892Z,80.75
2023-05-23T07:49:29.222Z,76.30
2023-05-23T07:51:56.606Z,78.57
2023-05-23T07:54:23.767Z,78.75
2023-05-23T07:56:50.970Z,74.63
2023-05-23T07:59:18.234Z,71.07
2023-05-23T08:01:45.614Z,72.68
2023-05-23T08:04:19.908Z,68.63
2023-05-23T08:07:00.827Z,65.00
2023-05-23T08:09:32.786Z,63.33
2023-05-23T08:12:00.555Z,59.13
2023-05-23T08:14:42.365Z,63.38
2023-05-23T08:17:15.897Z,57.35
2023-05-23T08:19:43.989Z,53.38
2023-05-23T08:22:11.219Z,60.05
2023-05-23T08:24:38.883Z,53.22
2023-05-23T08:27:07.830Z,50.88
2023-05-23T08:29:38.467Z,47.95
2023-05-23T08:32:06.094Z,49.42
2023-05-23T08:34:33.618Z,52.65
2023-05-23T08:37:01.226Z,46.97
2023-05-23T08:39:28.525Z,49.22
2023-05-23T08:41:55.821Z,48.17
2023-05-23T08:44:23.033Z,54.03
2023-05-23T08:46:51.205Z,51.33
2023-05-23T08:49:19.031Z,47.45
2023-05-23T08:51:46.391Z,49.28
2023-05-23T08:54:13.634Z,41.72
2023-05-23T08:56:41.408Z,41.17
2023-05-23T08:59:10.521Z,38.67
2023-05-23T09:01:39.857Z,40.60
2023-05-23T09:04:07.882Z,36.22
2023-05-23T09:06:35.775Z,38.75
2023-05-23T09:09:04.133Z,33.97
2023-05-23T09:11:36.117Z,33.75
2023-05-23T09:14:05.211Z,35.40
2023-05-23T09:16:35.746Z,33.15
2023-05-23T09:19:15.617Z,32.97
2023-05-23T09:21:44.802Z,32.65
2023-05-23T09:24:12.383Z,33.47
2023-05-23T09:26:39.579Z,29.10
2023-05-23T09:29:07.845Z,32.03
2023-05-23T09:31:35.126Z,31.67
2023-05-23T09:34:02.412Z,29.63
2023-05-23T09:36:35.348Z,27.90
2023-05-23T09:39:04.612Z,28.58
2023-05-23T09:41:34.871Z,32.35
2023-05-23T09:44:06.177Z,26.08
2023-05-23T09:46:35.956Z,24.52
2023-05-23T09:49:03.235Z,25.13
2023-05-23T09:51:31.323Z,24.45
2023-05-23T09:53:58.929Z,23.30
2023-05-23T09:56:28.550Z,23.10
2023-05-23T09:58:55.821Z,20.30
2023-05-23T10:01:24.026Z,20.58
2023-05-23T10:03:56.085Z,24.13
2023-05-23T10:06:27.180Z,21.63
2023-05-23T10:09:03.206Z,23.08
2023-05-23T10:11:36.498Z,20.58
2023-05-23T10:14:07.514Z,20.73
2023-05-23T10:16:37.887Z,18.20
2023-05-23T10:19:08.167Z,17.23
2023-05-23T10:21:36.863Z,17.08
2023-05-23T10:24:07.808Z,15.68
2023-05-23T10:26:34.959Z,15.50
2023-05-23T10:29:02.440Z,18.65
2023-05-23T10:31:30.386Z,16.95
2023-05-23T10:34:02.006Z,16.17
2023-05-23T10:36:34.474Z,16.67
2023-05-23T10:39:16.492Z,15.52
2023-05-23T10:41:52.191Z,17.73
2023-05-23T10:44:22.216Z,16.17
2023-05-23T10:46:58.927Z,16.70
2023-05-23T10:49:44.637Z,17.60
2023-05-23T10:52:13.052Z,16.50
2023-05-23T10:54:48.627Z,21.63
2023-05-23T10:57:22.048Z,16.38
2023-05-23T10:59:52.238Z,14.70
2023-05-23T11:02:20.268Z,16.05
2023-05-23T11:04:48.679Z,15.77
2023-05-23T11:07:31.947Z,19.60
2023-05-23T11:10:11.100Z,15.60
2023-05-23T11:12:42.384Z,16.35
2023-05-23T11:15:20.672Z,16.20
2023-05-23T11:17:51.828Z,15.80
2023-05-23T11:20:23.435Z,16.48
2023-05-23T11:23:01.282Z,16.98
2023-05-23T11:25:49.457Z,16.30
2023-05-23T11:28:17.484Z,14.98
2023-05-23T11:30:45.114Z,15.60
2023-05-23T11:33:17.065Z,18.45
2023-05-23T11:35:45.378Z,15.20
2023-05-23T11:38:12.720Z,14.13
2023-05-23T11:40:45.893Z,15.48
2023-05-23T11:43:16.689Z,14.50
2023-05-23T11:45:46.749Z,12.45
2023-05-23T11:48:18.007Z,12.20
2023-05-23T11:50:48.375Z,10.15
2023-05-23T11:53:20.794Z,8.38
2023-05-23T11:56:00.001Z,8.93
2023-05-23T11:58:28.157Z,9.07
2023-05-23T12:01:03.250Z,9.45
2023-05-23T12:03:31.765Z,11.13
2023-05-23T12:05:59.541Z,28.88
2023-05-23T12:08:26.878Z,13.25
2023-05-23T12:10:54.098Z,27.05
2023-05-23T12:13:24.536Z,23.60
2023-05-23T12:15:54.631Z,41.25
2023-05-23T12:18:21.990Z,10.13
2023-05-23T12:20:52.661Z,8.63
2023-05-23T12:23:23.521Z,9.18
2023-05-23T12:25:51.899Z,11.90
2023-05-23T12:28:19.308Z,9.25
2023-05-23T12:30:46.621Z,11.27
2023-05-23T12:33:13.973Z,9.20
2023-05-23T12:35:45.332Z,10.35
2023-05-23T12:38:16.590Z,8.85
2023-05-23T12:40:44.202Z,10.38
2023-05-23T12:43:11.486Z,8.85
2023-05-23T12:45:39.025Z,13.50
2023-05-23T12:48:07.549Z,11.75
2023-05-23T12:50:35.144Z,10.98
2023-05-23T12:53:02.467Z,10.88
2023-05-23T12:55:29.725Z,14.13
2023-05-23T12:57:56.913Z,11.55
2023-05-23T13:00:24.132Z,12.75
2023-05-23T13:02:51.425Z,12.80
2023-05-23T13:05:18.755Z,10.23
2023-05-23T13:07:45.945Z,12.88
2023-05-23T13:10:13.935Z,9.52
2023-05-23T13:12:41.141Z,10.50
2023-05-23T13:15:08.696Z,9.75
2023-05-23T13:17:36.069Z,10.85
2023-05-23T13:20:05.287Z,8.45
2023-05-23T13:22:32.701Z,8.75
2023-05-23T13:24:59.937Z,11.02
2023-05-23T13:27:27.179Z,8.93
2023-05-23T13:29:54.462Z,10.18
2023-05-23T13:32:21.655Z,11.88
2023-05-23T13:34:48.793Z,9.43
2023-05-23T13:37:16.223Z,8.85
2023-05-23T13:39:43.424Z,8.20
2023-05-23T13:42:10.718Z,8.68
2023-05-23T13:44:37.965Z,8.35
2023-05-23T13:47:13.269Z,9.68
2023-05-23T13:49:41.418Z,11.85
2023-05-23T13:52:08.774Z,9.32
2023-05-23T13:54:36.058Z,6.82
2023-05-23T13:57:03.585Z,6.57
2023-05-23T13:59:30.942Z,7.20
2023-05-23T14:01:58.320Z,7.78
2023-05-23T14:04:25.784Z,7.15
2023-05-23T14:06:53.218Z,10.98
2023-05-23T14:09:22.961Z,7.05
2023-05-23T14:11:52.207Z,7.70
2023-05-23T14:14:19.442Z,6.68
2023-05-23T14:16:46.775Z,6.88
2023-05-23T14:19:14.130Z,6.28
2023-05-23T14:21:43.257Z,6.20
2023-05-23T14:24:12.270Z,5.97
2023-05-23T14:26:39.507Z,5.70
2023-05-23T14:29:06.741Z,5.05
2023-05-23T14:31:34.084Z,6.05
2023-05-23T14:34:01.525Z,5.45
2023-05-23T14:36:29.124Z,4.63
2023-05-23T14:38:56.374Z,4.47
2023-05-23T14:41:23.588Z,4.72
2023-05-23T14:43:50.979Z,4.57
2023-05-23T14:46:18.862Z,3.95
2023-05-23T14:48:46.177Z,3.92
2023-05-23T14:51:23.593Z,11.73
2023-05-23T14:53:57.952Z,4.13
2023-05-23T14:56:26.724Z,3.95
2023-05-23T14:58:54.030Z,3.90
2023-05-23T15:01:21.334Z,4.22
2023-05-23T15:03:49.434Z,4.40
2023-05-23T15:06:16.710Z,4.07
2023-05-23T15:08:43.900Z,4.70
2023-05-23T15:11:11.121Z,6.43
2023-05-23T15:13:38.352Z,6.85
2023-05-23T15:16:06.937Z,4.63
2023-05-23T15:18:40.912Z,5.10
2023-05-23T15:21:09.329Z,4.40
2023-05-23T15:23:36.709Z,3.60
2023-05-23T15:26:04.019Z,4.18
2023-05-23T15:28:31.261Z,3.75
2023-05-23T15:30:59.086Z,4.80
2023-05-23T15:33:26.387Z,4.22
2023-05-23T15:35:54.851Z,4.05
2023-05-23T15:38:22.110Z,3.58
2023-05-23T15:40:49.367Z,3.92
2023-05-23T15:43:16.620Z,6.57
2023-05-23T15:45:43.932Z,4.85
2023-05-23T15:48:11.361Z,6.53
2023-05-23T15:50:38.710Z,7.32
2023-05-23T15:53:10.602Z,4.15
2023-05-23T15:55:42.100Z,4.10
2023-05-23T15:58:09.983Z,3.70
2023-05-23T16:00:37.269Z,4.93
2023-05-23T16:03:14.577Z,5.35
2023-05-23T16:05:42.123Z,4.35
2023-05-23T16:08:09.581Z,4.20
2023-05-23T16:10:37.035Z,3.85
2023-05-23T16:13:04.654Z,6.28
2023-05-23T16:15:31.863Z,3.97
2023-05-23T16:17:59.133Z,4.28
2023-05-23T16:20:26.373Z,4.13
2023-05-23T16:22:53.569Z,3.65
2023-05-23T16:25:20.857Z,3.60
2023-05-23T16:27:48.058Z,4.45
2023-05-23T16:30:15.667Z,3.50
2023-05-23T16:32:43.028Z,5.55
2023-05-23T16:35:11.189Z,4.13
2023-05-23T16:37:38.901Z,4.00
2023-05-23T16:40:08.980Z,4.63
2023-05-23T16:42:37.172Z,4.53
2023-05-23T16:45:04.883Z,5.03
2023-05-23T16:47:32.152Z,5.05
2023-05-23T16:49:59.416Z,5.95
2023-05-23T16:52:26.645Z,5.50
2023-05-23T16:54:55.764Z,5.05
2023-05-23T16:57:23.159Z,5.45
2023-05-23T16:59:50.434Z,4.85
2023-05-23T17:02:17.643Z,6.55
2023-05-23T17:04:45.045Z,4.07
2023-05-23T17:07:12.336Z,4.55
2023-05-23T17:09:39.861Z,6.22
2023-05-23T17:12:07.434Z,7.10
2023-05-23T17:14:34.852Z,4.22
2023-05-23T17:17:03.467Z,4.70
2023-05-23T17:19:30.764Z,4.30
2023-05-23T17:22:01.038Z,5.72
2023-05-23T17:24:28.560Z,5.07
2023-05-23T17:26:55.750Z,3.25
2023-05-23T17:29:22.991Z,2.83
2023-05-23T17:31:50.301Z,3.72
2023-05-23T17:34:17.923Z,3.10
2023-05-23T17:36:45.155Z,5.18
2023-05-23T17:39:12.600Z,3.55
2023-05-23T17:41:39.787Z,4.57
2023-05-23T17:44:06.938Z,2.60
2023-05-23T17:46:34.192Z,4.07
2023-05-23T17:49:01.590Z,5.82
2023-05-23T17:51:28.872Z,4.15
2023-05-23T17:53:56.072Z,5.20
2023-05-23T17:56:24.830Z,3.55
2023-05-23T17:58:52.656Z,4.03
2023-05-23T18:01:20.026Z,4.00
2023-05-23T18:03:48.962Z,2.83
2023-05-23T18:06:16.473Z,3.15
2023-05-23T18:08:43.682Z,6.25
2023-05-23T18:11:10.873Z,3.78
2023-05-23T18:13:38.076Z,2.92
2023-05-23T18:16:05.362Z,3.97
2023-05-23T18:18:33.115Z,2.63
2023-05-23T18:21:00.958Z,2.38
2023-05-23T18:23:28.884Z,2.38
2023-05-23T18:25:56.304Z,2.80
2023-05-23T18:28:23.530Z,3.40
2023-05-23T18:30:50.810Z,4.00
2023-05-23T18:33:18.079Z,2.53
2023-05-23T18:35:46.789Z,2.75
2023-05-23T18:38:13.976Z,4.82
2023-05-23T18:40:41.472Z,2.70
2023-05-23T18:43:08.881Z,4.55
2023-05-23T18:45:36.995Z,2.83
2023-05-23T18:48:04.503Z,2.58
2023-05-23T18:50:32.278Z,4.28
2023-05-23T18:52:59.442Z,2.42
2023-05-23T18:55:26.590Z,2.70
2023-05-23T18:57:54.223Z,2.20
2023-05-23T19:00:21.523Z,2.45
2023-05-23T19:02:48.849Z,4.00
2023-05-23T19:05:16.086Z,3.25
2023-05-23T19:07:43.449Z,2.30
2023-05-23T19:10:11.061Z,2.10
2023-05-23T19:12:39.579Z,2.88
2023-05-23T19:15:10.790Z,2.65
2023-05-23T19:17:38.778Z,4.00
2023-05-23T19:20:06.332Z,2.60
2023-05-23T19:22:46.944Z,2.80
2023-05-23T19:25:18.012Z,2.80
2023-05-23T19:27:45.269Z,2.42
2023-05-23T19:30:12.636Z,3.08
2023-05-23T19:32:39.977Z,2.78
2023-05-23T19:35:08.284Z,4.38
2023-05-23T19:37:35.645Z,3.45
2023-05-23T19:40:02.878Z,3.97
2023-05-23T19:42:30.044Z,3.45
2023-05-23T19:44:57.530Z,3.10
2023-05-23T19:47:24.794Z,2.90
2023-05-23T19:49:51.998Z,2.45
2023-05-23T19:52:19.214Z,2.92
2023-05-23T19:54:46.440Z,2.70
2023-05-23T19:57:13.650Z,3.40
2023-05-23T19:59:40.959Z,5.10
2023-05-23T20:02:08.170Z,3.75
2023-05-23T20:04:35.334Z,2.30
2023-05-23T20:07:02.555Z,3.60
2023-05-23T20:09:29.726Z,2.60
2023-05-23T20:11:56.951Z,3.28
2023-05-23T20:14:24.101Z,3.22
2023-05-23T20:16:51.541Z,4.53
2023-05-23T20:19:18.746Z,3.42
2023-05-23T20:21:46.016Z,3.90
2023-05-23T20:24:14.943Z,4.00
2023-05-23T20:26:42.575Z,6.43
2023-05-23T20:29:09.918Z,4.20
2023-05-23T20:31:37.106Z,3.22
2023-05-23T20:34:04.293Z,3.90
2023-05-23T20:36:31.587Z,3.92
2023-05-23T20:38:58.802Z,3.50
2023-05-23T20:41:26.054Z,6.60
2023-05-23T20:43:53.250Z,5.55
2023-05-23T20:46:20.705Z,5.18
2023-05-23T20:48:47.897Z,4.30
2023-05-23T20:51:15.092Z,5.13
2023-05-23T20:53:42.255Z,4.68
2023-05-23T20:56:12.609Z,4.80
2023-05-23T20:58:40.773Z,3.67
2023-05-23T21:01:08.137Z,4.60
2023-05-23T21:03:35.473Z,4.40
2023-05-23T21:06:02.719Z,4.78
2023-05-23T21:08:31.660Z,5.32
2023-05-23T21:11:00.240Z,4.70
2023-05-23T21:13:27.394Z,5.13
2023-05-23T21:15:54.603Z,5.25
2023-05-23T21:18:22.507Z,7.22
2023-05-23T21:20:50.608Z,5.00
2023-05-23T21:23:17.838Z,5.57
2023-05-23T21:25:45.022Z,5.20
2023-05-23T21:28:12.202Z,5.47
2023-05-23T21:30:39.883Z,5.82
2023-05-23T21:33:07.144Z,5.80
2023-05-23T21:35:35.991Z,5.68
2023-05-23T21:38:03.260Z,6.75
2023-05-23T21:40:30.416Z,5.85
2023-05-23T21:42:57.630Z,7.18
2023-05-23T21:45:25.053Z,6.03
2023-05-23T21:47:52.317Z,6.53
2023-05-23T21:50:19.550Z,5.78
2023-05-23T21:52:46.731Z,6.38
2023-05-23T21:55:13.911Z,5.38
2023-05-23T21:57:41.283Z,5.82
2023-05-23T22:00:12.551Z,5.97
2023-05-23T22:02:41.043Z,5.65
2023-05-23T22:05:08.891Z,4.80
2023-05-23T22:07:36.710Z,6.32
2023-05-23T22:10:03.944Z,6.03
2023-05-23T22:12:32.195Z,5.50
2023-05-23T22:14:59.466Z,5.20
2023-05-23T22:17:26.794Z,5.68
2023-05-23T22:19:55.788Z,9.00
2023-05-23T22:22:23.057Z,5.75
2023-05-23T22:24:50.234Z,5.25
2023-05-23T22:27:17.455Z,6.45
2023-05-23T22:29:44.663Z,5.45
2023-05-23T22:32:11.889Z,5.60
2023-05-23T22:34:39.153Z,7.75
2023-05-23T22:37:06.335Z,8.57
2023-05-23T22:39:33.529Z,6.50
2023-05-23T22:42:00.847Z,7.65
2023-05-23T22:44:28.073Z,4.65
2023-05-23T22:46:56.210Z,5.93
2023-05-23T22:49:25.252Z,6.07
2023-05-23T22:51:52.514Z,6.10
2023-05-23T22:54:19.790Z,5.55
2023-05-23T22:56:46.982Z,6.15
2023-05-23T22:59:14.210Z,6.38
2023-05-23T23:01:41.635Z,7.55
2023-05-23T23:04:08.910Z,6.00
2023-05-23T23:06:36.188Z,10.38
2023-05-23T23:09:05.034Z,5.78
2023-05-23T23:11:32.227Z,5.35
2023-05-23T23:13:59.957Z,6.47
2023-05-23T23:16:27.235Z,9.27
2023-05-23T23:18:55.138Z,6.30
2023-05-23T23:21:22.334Z,9.57
2023-05-23T23:23:49.861Z,4.93
2023-05-23T23:26:17.124Z,5.13
2023-05-23T23:28:44.367Z,6.95
2023-05-23T23:31:11.760Z,7.97
2023-05-23T23:33:38.944Z,9.02
2023-05-23T23:36:06.377Z,7.97
2023-05-23T23:38:33.592Z,8.63
2023-05-23T23:41:00.727Z,6.47
2023-05-23T23:43:27.955Z,6.43
2023-05-23T23:45:55.271Z,8.32
2023-05-23T23:48:22.438Z,9.38
2023-05-23T23:50:49.653Z,7.45
2023-05-23T23:53:16.996Z,8.35
2023-05-23T23:55:44.183Z,8.73
2023-05-23T23:58:11.325Z,8.75
